Time;durP1;ratioP1;P1;durP2;ratioP2;P2;SDS_P1;SDS_P2;PMS_P1;PMS_P2;Temp;Humidity;BMP_temperature;BMP_pressure;BME280_temperature;BME280_humidity;BME280_pressure;Samples;Min_cycle;Max_cycle;Signal;HPM_P1;HPM_P2
2023/10/19 00:02:34;;;;;;;7.93;5.70;;;;;;;10.70;100.00;98799.22;4881853;29;20179;-69
2023/10/19 00:05:38;;;;;;;10.13;6.43;;;;;;;10.71;100.00;98810.50;4881437;29;20060;-69
2023/10/19 00:08:41;;;;;;;9.55;6.90;;;;;;;10.55;100.00;98808.28;4881716;29;20109;-69
2023/10/19 00:11:46;;;;;;;;;;;;;;;10.65;100.00;98809.19;4882097;29;20132;-69
2023/10/19 00:14:49;;;;;;;8.73;6.97;;;;;;;10.77;100.00;98801.34;4881549;29;19944;-69
2023/10/19 00:17:53;;;;;;;8.77;6.72;;;;;;;10.77;100.00;98796.13;4881597;29;20133;-69
2023/10/19 00:24:04;;;;;;;8.43;6.55;;;;;;;10.70;100.00;98790.56;4881607;29;20410;-69
2023/10/19 00:27:16;;;;;;;8.13;7.32;;;;;;;10.68;100.00;98785.44;4881321;29;20096;-69
2023/10/19 00:30:23;;;;;;;11.68;7.93;;;;;;;10.66;100.00;98783.91;4869522;29;20052;-69
2023/10/19 00:33:28;;;;;;;7.95;6.25;;;;;;;10.73;100.00;98782.47;4881467;29;20509;-69
2023/10/19 00:36:31;;;;;;;8.18;6.85;;;;;;;10.78;100.00;98782.91;4869593;29;20163;-69
2023/10/19 00:39:43;;;;;;;;;;;;;;;10.84;100.00;98786.81;4881764;29;20064;-69
2023/10/19 00:42:52;;;;;;;8.10;6.68;;;;;;;10.86;100.00;98790.16;4881022;29;19923;-69
2023/10/19 00:45:56;;;;;;;10.23;7.90;;;;;;;10.85;100.00;98778.84;4869616;29;20484;-69
2023/10/19 00:49:05;;;;;;;8.90;7.05;;;;;;;10.89;100.00;98774.22;4880936;29;20108;-69
2023/10/19 00:52:12;;;;;;;11.25;7.00;;;;;;;10.90;100.00;98774.06;4880598;29;20140;-69
2023/10/19 00:55:20;;;;;;;8.65;6.93;;;;;;;10.92;100.00;98769.56;4880931;29;20166;-69
2023/10/19 00:58:29;;;;;;;9.48;7.60;;;;;;;10.75;100.00;98777.09;4869319;29;20136;-69
2023/10/19 01:01:40;;;;;;;8.73;7.30;;;;;;;10.80;100.00;98770.53;4880777;29;20128;-69
2023/10/19 01:04:46;;;;;;;9.18;7.60;;;;;;;10.69;100.00;98773.22;4869197;29;20120;-69
2023/10/19 01:07:57;;;;;;;10.05;7.55;;;;;;;10.70;100.00;98767.03;4868968;29;20044;-69
2023/10/19 01:11:03;;;;;;;12.30;9.80;;;;;;;10.74;100.00;98754.53;4880458;29;20628;-69
2023/10/19 01:14:27;;;;;;;9.38;8.40;;;;;;;10.85;100.00;98741.44;4880530;29;20052;-69
2023/10/19 01:17:33;;;;;;;10.55;7.20;;;;;;;10.90;100.00;98754.94;4869152;29;20469;-69
2023/10/19 01:20:55;;;;;;;8.68;7.15;;;;;;;10.86;100.00;98759.59;4869076;29;20133;-69
2023/10/19 01:23:59;;;;;;;9.02;6.75;;;;;;;10.88;100.00;98746.38;4880463;29;20095;-69
2023/10/19 01:27:03;;;;;;;8.45;7.15;;;;;;;10.91;100.00;98747.00;4880347;29;20559;-69
2023/10/19 01:30:09;;;;;;;8.43;7.10;;;;;;;10.98;100.00;98741.25;4860286;29;20459;-69
2023/10/19 01:33:15;;;;;;;8.95;6.88;;;;;;;11.01;100.00;98746.19;4861212;29;20068;-68
2023/10/19 01:36:24;;;;;;;9.88;7.63;;;;;;;10.99;100.00;98732.44;4861414;29;20045;-68
2023/10/19 01:39:28;;;;;;;8.68;7.78;;;;;;;10.94;100.00;98740.66;4838739;29;20061;-68
2023/10/19 01:42:31;;;;;;;9.45;7.93;;;;;;;10.94;100.00;98735.41;4854953;29;20048;-68
2023/10/19 01:45:35;;;;;;;11.30;7.82;;;;;;;10.78;100.00;98732.41;4843041;29;20044;-68
2023/10/19 01:48:43;;;;;;;;;;;;;;;10.87;100.00;98724.63;4842385;29;20052;-68
2023/10/19 01:51:47;;;;;;;11.55;8.73;;;;;;;10.77;100.00;98731.59;4842726;29;20012;-68
2023/10/19 01:54:58;;;;;;;10.23;8.70;;;;;;;10.79;100.00;98726.25;4859825;29;20544;-68
2023/10/19 01:58:01;;;;;;;11.68;9.38;;;;;;;10.60;100.00;98732.97;4857631;29;20051;-68
2023/10/19 02:01:20;;;;;;;;;;;;;;;10.71;100.00;98724.25;4867547;29;20043;-68
2023/10/19 02:04:24;;;;;;;9.73;8.38;;;;;;;10.77;100.00;98731.59;4878499;29;19966;-73
2023/10/19 02:07:27;;;;;;;8.90;7.85;;;;;;;10.88;100.00;98721.09;4878899;29;20063;-68
2023/10/19 02:10:32;;;;;;;;;;;;;;;10.98;100.00;98720.34;4879906;29;20089;-68
2023/10/19 02:13:36;;;;;;;11.85;7.72;;;;;;;11.03;100.00;98712.91;4867963;29;19962;-68
2023/10/19 02:16:40;;;;;;;8.75;7.85;;;;;;;11.07;100.00;98703.84;4867783;29;20043;-68
2023/10/19 02:19:44;;;;;;;9.55;7.35;;;;;;;11.03;100.00;98705.91;4879314;29;20056;-68
2023/10/19 02:22:47;;;;;;;;;;;;;;;11.06;100.00;98696.97;4879713;29;20453;-68
2023/10/19 02:25:50;;;;;;;13.77;8.27;;;;;;;11.07;100.00;98698.63;4879259;29;19979;-68
2023/10/19 02:28:55;;;;;;;11.90;8.75;;;;;;;11.07;100.00;98690.78;4831152;29;20114;-69
2023/10/19 02:32:04;;;;;;;11.07;9.18;;;;;;;11.04;100.00;98686.66;4842074;29;20053;-69
2023/10/19 02:35:09;;;;;;;14.93;10.25;;;;;;;10.99;100.00;98686.19;4842168;29;20088;-69
2023/10/19 02:38:13;;;;;;;9.40;7.65;;;;;;;11.04;100.00;98683.19;4830836;29;20076;-69
2023/10/19 02:41:20;;;;;;;12.27;8.40;;;;;;;11.01;100.00;98683.44;4842070;29;20411;-68
2023/10/19 02:44:25;;;;;;;11.30;9.45;;;;;;;10.91;100.00;98686.84;4848578;29;20104;-69
2023/10/19 02:47:28;;;;;;;13.50;9.52;;;;;;;10.91;100.00;98684.22;4870191;29;20098;-69
2023/10/19 02:50:32;;;;;;;13.15;9.65;;;;;;;10.94;100.00;98681.38;4879196;29;20087;-68
2023/10/19 02:53:38;;;;;;;10.15;8.55;;;;;;;11.00;100.00;98677.38;4879083;29;20097;-69
2023/10/19 02:56:42;;;;;;;10.90;8.80;;;;;;;11.03;100.00;98677.13;4867171;29;20095;-68
2023/10/19 02:59:46;;;;;;;11.13;9.20;;;;;;;11.06;100.00;98678.66;4867327;29;20083;-68
2023/10/19 03:02:52;;;;;;;10.00;8.63;;;;;;;11.06;100.00;98678.66;4878754;29;20587;-68
2023/10/19 03:05:55;;;;;;;11.32;9.07;;;;;;;11.05;100.00;98680.47;4878604;29;20056;-68
2023/10/19 03:09:16;;;;;;;11.18;8.25;;;;;;;11.06;100.00;98676.88;4878688;29;20082;-68
2023/10/19 03:12:26;;;;;;;11.70;9.18;;;;;;;11.12;100.00;98672.91;4867208;29;20055;-68
2023/10/19 03:15:33;;;;;;;12.30;10.52;;;;;;;11.10;100.00;98672.22;4880902;29;20052;-68
2023/10/19 03:18:36;;;;;;;10.02;8.38;;;;;;;11.08;100.00;98669.75;4871176;29;20044;-69
2023/10/19 03:21:42;;;;;;;;;;;;;;;11.08;100.00;98668.91;4871292;29;20063;-69
2023/10/19 03:24:47;;;;;;;12.27;9.52;;;;;;;11.08;100.00;98674.16;4869767;29;19922;-69
2023/10/19 03:27:51;;;;;;;13.05;9.57;;;;;;;11.07;100.00;98662.84;4870720;29;20509;-69
2023/10/19 03:30:55;;;;;;;10.30;8.27;;;;;;;11.07;100.00;98657.63;4870699;29;20088;-69
2023/10/19 03:33:59;;;;;;;8.95;8.05;;;;;;;11.07;100.00;98662.84;4870659;29;20087;-68
2023/10/19 03:37:05;;;;;;;11.20;8.55;;;;;;;11.04;100.00;98664.88;4870502;29;20044;-69
2023/10/19 03:40:15;;;;;;;9.55;8.23;;;;;;;11.04;100.00;98652.66;4882053;29;20075;-69
2023/10/19 03:43:21;;;;;;;12.13;9.82;;;;;;;10.99;100.00;98652.19;4870322;29;20421;-68
2023/10/19 03:46:28;;;;;;;14.77;9.10;;;;;;;10.96;100.00;98655.06;4881746;29;20047;-69
2023/10/19 03:49:36;;;;;;;9.52;8.48;;;;;;;10.93;100.00;98648.31;4870264;29;20092;-68
2023/10/19 03:52:40;;;;;;;9.55;8.55;;;;;;;10.90;100.00;98640.72;4881704;29;20104;-68
2023/10/19 03:55:43;;;;;;;10.20;9.00;;;;;;;10.91;100.00;98631.06;4870330;29;20056;-68
2023/10/19 03:58:50;;;;;;;14.48;9.30;;;;;;;10.86;100.00;98631.47;4870110;29;20051;-68
2023/10/19 04:01:53;;;;;;;13.50;10.55;;;;;;;10.79;100.00;98619.88;4881662;29;20132;-68
2023/10/19 04:04:57;;;;;;;12.57;10.32;;;;;;;10.83;100.00;98634.34;4881354;29;20108;-69
2023/10/19 04:08:05;;;;;;;14.90;12.23;;;;;;;10.89;100.00;98622.56;4881492;29;20052;-69
2023/10/19 04:11:12;;;;;;;15.80;10.40;;;;;;;10.86;100.00;98612.34;4881396;29;20108;-68
2023/10/19 04:14:15;;;;;;;16.60;9.80;;;;;;;10.86;100.00;98622.81;4881337;29;20133;-68
2023/10/19 04:17:20;;;;;;;13.48;11.32;;;;;;;10.80;100.00;98612.88;4881525;29;20124;-68
2023/10/19 04:23:28;;;;;;;13.82;12.18;;;;;;;10.82;100.00;98603.94;4881271;29;20100;-68
2023/10/19 04:29:43;;;;;;;13.65;11.25;;;;;;;10.86;100.00;98607.94;5040058;23;20053;-69
2023/10/19 04:32:46;;;;;;;14.57;11.95;;;;;;;10.89;100.00;98592.00;4880709;29;20047;-69
2023/10/19 04:35:55;;;;;;;;;;;;;;;10.92;100.00;98596.97;4881013;29;20056;-69
2023/10/19 04:38:59;;;;;;;27.92;18.88;;;;;;;10.91;100.00;98597.09;4881186;29;19963;-69
2023/10/19 04:42:04;;;;;;;20.38;15.55;;;;;;;10.91;100.00;98602.31;4880890;29;20043;-69
2023/10/19 04:45:07;;;;;;;23.70;17.40;;;;;;;10.94;100.00;98600.31;4880508;29;20076;-69
2023/10/19 04:48:12;;;;;;;23.25;15.73;;;;;;;10.93;100.00;98597.78;4880901;29;20515;-69
2023/10/19 04:51:17;;;;;;;20.10;14.40;;;;;;;10.88;100.00;98595.59;4881065;29;20044;-69
2023/10/19 04:54:20;;;;;;;18.05;14.00;;;;;;;10.92;100.00;98594.34;4880925;29;20044;-69
2023/10/19 04:57:23;;;;;;;;;;;;;;;10.89;100.00;98612.91;4881618;29;20112;-69
2023/10/19 05:00:30;;;;;;;18.20;14.60;;;;;;;10.90;100.00;98606.72;4880828;29;20339;-69
2023/10/19 05:03:59;;;;;;;28.80;16.33;;;;;;;10.92;100.00;98607.44;4880436;29;20056;-69
2023/10/19 05:07:03;;;;;;;22.08;16.27;;;;;;;10.91;100.00;98610.16;4879103;29;20093;-69
2023/10/19 05:10:07;;;;;;;22.00;14.60;;;;;;;10.94;100.00;98600.31;4879039;29;20096;-69
2023/10/19 05:13:10;;;;;;;18.20;14.32;;;;;;;10.94;100.00;98594.22;4879513;29;20135;-69
2023/10/19 05:16:14;;;;;;;17.75;14.50;;;;;;;10.93;100.00;98596.00;4880118;29;20067;-69
2023/10/19 05:19:17;;;;;;;19.38;15.68;;;;;;;10.96;100.00;98596.72;4880107;29;20059;-69
2023/10/19 05:22:21;;;;;;;17.45;14.55;;;;;;;10.96;100.00;98588.88;4880132;29;20051;-70
2023/10/19 05:25:25;;;;;;;17.88;14.00;;;;;;;10.94;100.00;98586.38;4880573;29;20089;-70
2023/10/19 05:28:29;;;;;;;18.83;14.27;;;;;;;10.91;100.00;98594.47;4880222;29;20421;-69
2023/10/19 05:31:37;;;;;;;14.68;12.75;;;;;;;10.94;100.00;98592.47;4861946;29;20066;-69
2023/10/19 05:34:40;;;;;;;22.10;15.43;;;;;;;10.90;100.00;98588.41;4860731;29;20094;-69
2023/10/19 05:37:44;;;;;;;15.52;13.38;;;;;;;10.88;100.00;98579.91;4859843;29;20110;-69
2023/10/19 05:40:49;;;;;;;15.07;12.82;;;;;;;10.92;100.00;98596.97;4860145;29;20060;-72
2023/10/19 05:43:53;;;;;;;15.25;11.77;;;;;;;10.90;100.00;98598.88;4861236;29;20052;-70
2023/10/19 05:46:58;;;;;;;15.75;11.05;;;;;;;10.92;100.00;98589.13;4861114;29;20182;-70
2023/10/19 05:50:02;;;;;;;17.05;10.65;;;;;;;10.93;100.00;98596.00;4860641;29;20140;-68
2023/10/19 05:53:06;;;;;;;16.13;11.73;;;;;;;10.97;100.00;98600.97;4860931;29;20533;-68
2023/10/19 05:56:09;;;;;;;14.30;11.27;;;;;;;10.98;100.00;98603.47;4860574;29;20180;-68
2023/10/19 05:59:13;;;;;;;12.63;11.32;;;;;;;11.00;100.00;98603.34;4860408;29;20051;-69
2023/10/19 06:02:17;;;;;;;18.58;14.43;;;;;;;10.97;100.00;98595.75;4860806;29;20074;-68
2023/10/19 06:05:24;;;;;;;24.20;16.10;;;;;;;10.98;100.00;98592.19;4858842;29;20183;-69
2023/10/19 06:08:49;;;;;;;16.48;13.38;;;;;;;10.98;100.00;98592.19;4859812;29;20048;-69
2023/10/19 06:11:56;;;;;;;18.38;12.75;;;;;;;10.92;100.00;98599.59;4860221;29;20064;-69
2023/10/19 06:15:32;;;;;;;;;;;;;;;10.99;100.00;98593.84;4859257;29;20533;-69
2023/10/19 06:18:35;;;;;;;17.27;12.48;;;;;;;10.99;100.00;98602.50;4857539;29;19922;-69
2023/10/19 06:21:39;;;;;;;16.05;11.93;;;;;;;10.98;100.00;98610.50;4859218;29;20076;-69
2023/10/19 06:24:43;;;;;;;15.95;13.05;;;;;;;11.00;100.00;98608.56;4859464;29;20473;-68
2023/10/19 06:27:48;;;;;;;17.08;13.35;;;;;;;11.02;100.00;98611.88;4858872;29;20113;-70
2023/10/19 06:30:53;;;;;;;19.55;13.75;;;;;;;11.00;100.00;98608.56;4872915;29;20063;-67
2023/10/19 06:33:57;;;;;;;16.85;13.20;;;;;;;10.99;100.00;98617.38;4877844;29;20205;-70
2023/10/19 06:37:03;;;;;;;15.77;12.45;;;;;;;10.99;100.00;98612.16;4877608;29;20128;-68
2023/10/19 06:40:07;;;;;;;13.65;12.05;;;;;;;11.00;100.00;98598.94;4877385;29;20089;-70
2023/10/19 06:43:11;;;;;;;13.30;11.85;;;;;;;11.03;100.00;98605.69;4877479;29;20457;-69
2023/10/19 06:46:14;;;;;;;18.25;12.02;;;;;;;11.08;100.00;98614.00;4877334;29;20048;-69
2023/10/19 06:49:19;;;;;;;16.70;14.25;;;;;;;11.07;100.00;98609.69;4876848;29;20528;-70
2023/10/19 06:52:22;;;;;;;22.88;16.35;;;;;;;11.06;100.00;98613.28;4876663;29;20470;-69
2023/10/19 06:55:28;;;;;;;18.73;13.43;;;;;;;11.11;100.00;98611.13;4877650;29;20092;-69
2023/10/19 06:58:31;;;;;;;17.48;14.20;;;;;;;11.03;100.00;98608.31;4877737;29;20051;-69
2023/10/19 07:01:36;;;;;;;;;;;;;;;11.11;100.00;98617.16;4877402;29;20048;-70
2023/10/19 07:04:43;;;;;;;11.40;10.20;;;;;;;11.14;100.00;98629.16;4877619;29;19961;-71
2023/10/19 07:07:46;;;;;;;14.38;10.63;;;;;;;11.21;100.00;98629.47;4876833;29;20044;-71
2023/10/19 07:10:50;;;;;;;14.20;10.63;;;;;;;11.16;100.00;98614.16;4892477;29;20404;-69
2023/10/19 07:13:53;;;;;;;16.48;10.88;;;;;;;11.21;100.00;98619.00;4892704;29;20079;-70
2023/10/19 07:16:57;;;;;;;16.95;11.77;;;;;;;11.13;100.00;98617.03;4893591;29;20059;-70
2023/10/19 07:20:03;;;;;;;14.35;10.48;;;;;;;11.21;100.00;98619.84;4894593;29;20051;-71
2023/10/19 07:23:33;;;;;;;14.73;10.18;;;;;;;11.24;100.00;98619.56;4891462;29;20108;-71
2023/10/19 07:26:53;;;;;;;12.68;9.73;;;;;;;11.34;100.00;98623.06;4892773;29;20109;-71
2023/10/19 07:30:00;;;;;;;11.40;9.40;;;;;;;11.42;100.00;98627.63;4893871;29;20123;-70
2023/10/19 07:33:05;;;;;;;18.15;11.43;;;;;;;11.39;100.00;98630.50;4890212;29;20093;-70
2023/10/19 07:36:15;;;;;;;18.63;11.80;;;;;;;11.41;100.00;98626.78;4891335;29;20129;-71
2023/10/19 07:39:19;;;;;;;19.23;13.15;;;;;;;11.36;100.00;98630.78;4894131;29;20148;-70
2023/10/19 07:42:24;;;;;;;16.25;11.85;;;;;;;11.47;100.00;98635.91;4895339;29;20052;-70
2023/10/19 07:45:28;;;;;;;16.50;13.23;;;;;;;11.32;100.00;98632.81;4890813;29;20048;-70
2023/10/19 07:48:32;;;;;;;20.77;13.38;;;;;;;11.47;100.00;98638.53;4892178;29;20047;-70
2023/10/19 07:51:35;;;;;;;17.50;14.23;;;;;;;11.58;100.00;98632.34;4893289;29;20048;-70
2023/10/19 07:54:39;;;;;;;21.67;14.93;;;;;;;11.70;100.00;98618.22;4891898;29;20056;-70
2023/10/19 07:57:44;;;;;;;20.38;15.38;;;;;;;11.75;100.00;98628.28;4881189;29;20373;-70
2023/10/19 08:00:47;;;;;;;20.60;15.07;;;;;;;11.75;100.00;98621.25;4889018;29;20105;-69
2023/10/19 08:03:51;;;;;;;21.23;15.73;;;;;;;11.70;100.00;98612.97;4894246;29;20104;-69
2023/10/19 08:06:55;;;;;;;22.50;16.00;;;;;;;11.82;100.00;98611.06;4897714;29;20091;-69
2023/10/19 08:09:58;;;;;;;22.92;15.82;;;;;;;11.90;100.00;98605.19;4897749;29;20046;-69
2023/10/19 08:13:02;;;;;;;22.73;15.63;;;;;;;12.02;100.00;98604.94;4898172;29;20186;-69
2023/10/19 08:16:07;;;;;;;21.05;16.42;;;;;;;11.96;100.00;98608.09;4898577;29;20520;-69
2023/10/19 08:19:12;;;;;;;24.60;16.80;;;;;;;11.95;100.00;98601.19;4898216;29;20107;-69
2023/10/19 08:22:15;;;;;;;22.48;16.90;;;;;;;11.96;100.00;98602.03;4898652;29;20039;-69
2023/10/19 08:25:19;;;;;;;18.00;15.40;;;;;;;11.95;100.00;98601.19;4897517;29;20499;-70
2023/10/19 08:28:24;;;;;;;19.02;14.75;;;;;;;12.10;100.00;98606.88;4964733;23;20056;-68
2023/10/19 08:31:27;;;;;;;19.60;16.17;;;;;;;12.23;100.00;98612.69;4894301;29;20055;-70
2023/10/19 08:34:35;;;;;;;21.60;14.98;;;;;;;12.34;100.00;98612.53;4890670;29;20052;-68
2023/10/19 08:37:42;;;;;;;21.98;16.33;;;;;;;12.30;100.00;98602.47;4897349;29;20093;-69
2023/10/19 08:40:49;;;;;;;28.23;21.30;;;;;;;12.24;100.00;98601.22;4895525;29;20047;-72
2023/10/19 08:43:55;;;;;;;26.45;19.25;;;;;;;12.31;100.00;98604.13;4897151;29;20525;-67
2023/10/19 08:46:59;;;;;;;23.45;16.55;;;;;;;12.26;100.00;98598.47;4893769;29;20056;-69
2023/10/19 08:50:07;;;;;;;20.48;16.10;;;;;;;12.31;100.00;98591.84;4897062;29;20108;-70
2023/10/19 08:53:14;;;;;;;25.00;17.58;;;;;;;12.43;100.00;98583.84;4893455;29;20067;-70
2023/10/19 08:56:17;;;;;;;27.35;20.30;;;;;;;12.26;100.00;98583.56;4897456;29;20400;-69
2023/10/19 08:59:21;;;;;;;25.80;20.05;;;;;;;12.32;100.00;98576.97;4893937;29;20093;-69
2023/10/19 09:02:25;;;;;;;21.15;16.95;;;;;;;12.37;100.00;98584.41;4895215;29;20112;-67
2023/10/19 09:05:30;;;;;;;25.83;17.10;;;;;;;12.36;100.00;98578.34;4896033;29;20043;-70
2023/10/19 09:08:39;;;;;;;25.58;18.80;;;;;;;12.39;100.00;98572.81;4897372;29;20116;-66
2023/10/19 09:11:50;;;;;;;31.48;21.75;;;;;;;12.54;100.00;98573.22;4895620;29;20048;-68
2023/10/19 09:14:54;;;;;;;26.80;19.40;;;;;;;12.53;100.00;98559.25;4897026;29;20051;-68
2023/10/19 09:17:57;;;;;;;27.70;22.30;;;;;;;12.71;100.00;98550.69;4892979;29;20404;-68
2023/10/19 09:21:05;;;;;;;20.73;17.65;;;;;;;12.89;100.00;98548.13;4894564;29;20059;-69
2023/10/19 09:24:12;;;;;;;19.42;17.00;;;;;;;12.93;100.00;98545.09;4896024;29;20055;-69
2023/10/19 09:27:20;;;;;;;22.02;17.50;;;;;;;12.93;100.00;98539.03;4892325;29;20556;-70
2023/10/19 09:30:26;;;;;;;25.48;19.17;;;;;;;12.77;100.00;98532.59;4868157;29;20470;-69
2023/10/19 09:33:33;;;;;;;21.67;17.98;;;;;;;12.78;100.00;98528.97;4866480;29;20085;-68
2023/10/19 09:36:37;;;;;;;23.38;18.15;;;;;;;12.78;100.00;98531.59;4853791;29;20116;-68
2023/10/19 09:39:43;;;;;;;21.95;17.17;;;;;;;12.88;100.00;98533.38;4866709;29;20073;-70
2023/10/19 09:42:52;;;;;;;20.67;16.80;;;;;;;12.87;100.00;98529.09;4868118;29;20162;-70
2023/10/19 09:46:00;;;;;;;20.92;17.58;;;;;;;12.90;100.00;98528.81;4867291;29;20056;-68
2023/10/19 09:49:04;;;;;;;20.08;16.25;;;;;;;12.98;100.00;98521.88;4855961;29;20570;-68
2023/10/19 09:52:09;;;;;;;19.52;14.77;;;;;;;13.24;100.00;98511.59;4860214;29;20150;-68
2023/10/19 09:55:28;;;;;;;16.70;14.90;;;;;;;13.28;100.00;98513.91;4867754;29;20097;-68
2023/10/19 09:58:38;;;;;;;15.52;13.90;;;;;;;13.45;100.00;98513.94;4867167;29;20430;-69
2023/10/19 10:02:15;;;;;;;13.85;12.45;;;;;;;13.52;100.00;98511.53;4868880;29;20082;-68
2023/10/19 10:05:43;;;;;;;15.75;13.20;;;;;;;13.61;100.00;98510.66;4867289;29;20049;-69
2023/10/19 10:08:48;;;;;;;15.20;12.10;;;;;;;13.58;100.00;98497.81;4874190;29;20065;-69
2023/10/19 10:11:56;;;;;;;12.85;11.55;;;;;;;13.54;100.00;98498.28;4877054;29;20048;-68
2023/10/19 10:15:09;;;;;;;14.68;13.18;;;;;;;13.45;100.00;98513.13;4877919;29;20104;-71
2023/10/19 10:18:17;;;;;;;16.52;12.88;;;;;;;13.49;100.00;98510.03;4877824;29;20073;-70
2023/10/19 10:21:22;;;;;;;20.67;11.32;;;;;;;13.53;100.00;98510.59;4877932;29;20100;-68
2023/10/19 10:24:25;;;;;;;15.15;11.45;;;;;;;13.56;100.00;98505.03;4877156;29;20052;-69
2023/10/19 10:27:30;;;;;;;18.40;12.40;;;;;;;13.58;100.00;98505.69;4877125;29;20111;-72
2023/10/19 10:30:36;;;;;;;17.75;12.98;;;;;;;13.60;100.00;98495.06;4876144;29;20055;-71
2023/10/19 10:33:51;;;;;;;17.90;14.40;;;;;;;13.71;100.00;98487.78;4877988;29;20196;-68
2023/10/19 10:37:02;;;;;;;18.02;12.98;;;;;;;13.87;100.00;98487.09;4877456;29;20413;-70
2023/10/19 10:40:06;;;;;;;14.52;12.25;;;;;;;13.92;100.00;98491.91;4877480;29;20059;-68
2023/10/19 10:43:14;;;;;;;15.32;12.45;;;;;;;13.86;100.00;98489.88;4877459;29;20633;-69
2023/10/19 10:46:17;;;;;;;14.30;12.18;;;;;;;13.93;100.00;98490.94;4877550;29;20060;-70
2023/10/19 10:49:21;;;;;;;15.35;12.32;;;;;;;13.87;100.00;98486.28;4877785;29;20055;-68
2023/10/19 10:52:31;;;;;;;14.63;11.75;;;;;;;13.85;100.00;98483.81;4877162;29;20055;-72
2023/10/19 10:55:35;;;;;;;14.57;12.75;;;;;;;13.94;100.00;98492.56;4877239;29;20076;-66
2023/10/19 10:58:38;;;;;;;14.90;10.95;;;;;;;14.10;100.00;98492.72;4877147;29;20516;-66
2023/10/19 11:01:42;;;;;;;11.55;9.85;;;;;;;14.30;100.00;98490.72;4877346;29;20113;-68
2023/10/19 11:04:46;;;;;;;13.40;10.32;;;;;;;14.41;100.00;98485.22;4877102;29;20105;-68
2023/10/19 11:08:13;;;;;;;15.65;10.38;;;;;;;14.39;100.00;98483.75;4877096;29;20052;-68
2023/10/19 11:11:16;;;;;;;15.25;11.40;;;;;;;14.30;100.00;98490.72;4877184;29;20079;-72
2023/10/19 11:14:25;;;;;;;11.20;9.77;;;;;;;14.32;100.00;98485.31;4877732;29;20520;-69
2023/10/19 11:17:31;;;;;;;11.15;9.75;;;;;;;14.34;100.00;98481.56;4877586;29;20051;-69
2023/10/19 11:20:36;;;;;;;13.57;10.18;;;;;;;14.35;100.00;98477.13;4869177;29;20047;-68
2023/10/19 11:23:42;;;;;;;11.80;10.23;;;;;;;14.33;100.00;98471.22;4867546;29;20105;-69
2023/10/19 11:26:48;;;;;;;13.07;9.57;;;;;;;14.39;100.00;98473.22;4840213;29;20071;-68
2023/10/19 11:29:57;;;;;;;14.50;10.65;;;;;;;14.38;100.00;98476.81;4840049;29;20092;-68
2023/10/19 11:33:02;;;;;;;12.95;9.98;;;;;;;14.30;100.00;98488.09;4840714;29;20052;-69
2023/10/19 11:36:06;;;;;;;14.38;10.32;;;;;;;14.38;100.00;98495.22;4876325;29;20052;-70
2023/10/19 11:39:15;;;;;;;11.55;9.38;;;;;;;14.47;100.00;98485.59;4879284;29;20047;-70
2023/10/19 11:42:18;;;;;;;11.85;10.65;;;;;;;14.58;100.00;98486.19;4880530;29;20056;-72
2023/10/19 11:45:26;;;;;;;10.57;9.02;;;;;;;14.66;100.00;98477.50;4877675;29;20541;-70
2023/10/19 11:48:29;;;;;;;13.73;10.85;;;;;;;14.69;100.00;98471.13;4880725;29;20136;-70
2023/10/19 11:51:32;;;;;;;12.93;10.93;;;;;;;14.77;100.00;98476.41;4880771;29;20521;-72
2023/10/19 11:54:36;;;;;;;14.95;11.70;;;;;;;14.74;100.00;98467.03;4880714;29;20123;-72
2023/10/19 11:57:40;;;;;;;16.63;11.65;;;;;;;14.78;100.00;98449.13;4880659;29;20078;-68
2023/10/19 12:00:46;;;;;;;20.33;10.90;;;;;;;14.73;100.00;98461.91;4880577;29;20047;-68
2023/10/19 12:03:49;;;;;;;12.68;10.02;;;;;;;14.69;100.00;98452.69;4880413;29;20048;-68
2023/10/19 12:06:53;;;;;;;13.15;10.05;;;;;;;14.64;100.00;98459.28;4880199;29;20133;-68
2023/10/19 12:09:56;;;;;;;17.05;11.25;;;;;;;14.78;100.00;98459.66;4879871;29;20068;-68
2023/10/19 12:13:01;;;;;;;14.02;10.48;;;;;;;14.74;100.00;98464.41;4880011;29;20524;-69
2023/10/19 12:16:07;;;;;;;18.98;16.98;;;;;;;14.87;100.00;98463.97;4880030;29;20377;-69
2023/10/19 12:19:11;;;;;;;8.93;7.47;;;;;;;14.90;100.00;98442.63;4880252;29;20112;-69
2023/10/19 12:22:14;;;;;;;13.57;9.32;;;;;;;14.98;100.00;98441.81;4880242;29;20096;-68
2023/10/19 12:25:17;;;;;;;10.55;9.23;;;;;;;15.00;100.00;98443.31;4880078;29;20120;-68
2023/10/19 12:28:21;;;;;;;17.05;11.75;;;;;;;15.02;100.00;98446.59;4878974;29;20068;-67
2023/10/19 12:31:25;;;;;;;12.85;8.80;;;;;;;15.10;100.00;98451.88;4879853;29;20047;-67
2023/10/19 12:34:29;;;;;;;16.35;8.93;;;;;;;15.09;100.00;98444.97;4879912;29;20056;-67
2023/10/19 12:37:33;;;;;;;12.20;7.68;;;;;;;15.11;100.00;98442.19;4879710;29;20048;-67
2023/10/19 12:40:37;;;;;;;8.73;6.82;;;;;;;15.14;100.00;98443.66;4880175;29;20052;-69
2023/10/19 12:43:41;;;;;;;15.25;6.22;;;;;;;15.11;100.00;98434.28;4879745;29;20132;-68
2023/10/19 12:46:45;;;;;;;10.25;5.22;;;;;;;15.16;100.00;98436.44;4879378;29;20061;-73
2023/10/19 12:49:50;;;;;;;8.15;5.68;;;;;;;15.25;100.00;98431.03;4879351;29;20048;-71
2023/10/19 12:52:55;;;;;;;8.55;6.20;;;;;;;15.39;100.00;98426.13;4879812;29;20068;-68
2023/10/19 12:56:00;;;;;;;11.73;7.45;;;;;;;15.34;100.00;98426.59;4867915;29;20063;-66
2023/10/19 12:59:06;;;;;;;12.30;9.27;;;;;;;15.26;100.00;98416.06;4879537;29;20137;-68
2023/10/19 13:02:14;;;;;;;17.80;9.85;;;;;;;15.21;100.00;98413.91;4879474;29;20095;-68
2023/10/19 13:05:20;;;;;;;15.07;9.50;;;;;;;15.19;100.00;98409.78;4879156;29;20189;-68
2023/10/19 13:08:27;;;;;;;14.43;8.55;;;;;;;15.08;100.00;98411.72;4879296;29;20486;-68
2023/10/19 13:11:32;;;;;;;19.45;8.63;;;;;;;15.07;100.00;98398.75;4879275;29;20104;-68
2023/10/19 13:14:35;;;;;;;13.23;7.15;;;;;;;15.15;100.00;98401.38;4879399;29;20055;-68
2023/10/19 13:17:43;;;;;;;12.68;8.20;;;;;;;15.23;100.00;98409.31;4879396;29;20060;-67
2023/10/19 13:20:48;;;;;;;14.40;6.93;;;;;;;15.31;100.00;98404.03;4879663;29;20417;-68
2023/10/19 13:23:53;;;;;;;6.60;5.65;;;;;;;15.44;100.00;98402.75;4879135;29;20181;-64
2023/10/19 13:26:56;;;;;;;9.45;6.97;;;;;;;15.62;100.00;98394.72;4878913;29;20052;-64
2023/10/19 13:30:01;;;;;;;7.90;6.45;;;;;;;15.67;100.00;98384.53;4879016;29;20109;-63
2023/10/19 13:33:11;;;;;;;13.35;7.72;;;;;;;15.73;100.00;98389.13;4878958;29;20104;-64
2023/10/19 13:36:15;;;;;;;12.02;7.53;;;;;;;15.70;100.00;98392.94;4879271;29;20137;-62
2023/10/19 13:39:19;;;;;;;9.02;7.03;;;;;;;15.66;100.00;98381.03;4879331;29;20096;-62
2023/10/19 13:42:23;;;;;;;18.45;10.10;;;;;;;15.56;100.00;98381.19;4878873;29;20047;-68
2023/10/19 13:45:47;;;;;;;17.48;8.07;;;;;;;15.47;100.00;98371.63;4869968;29;20311;-70
2023/10/19 13:48:50;;;;;;;11.73;8.05;;;;;;;15.53;100.00;98381.53;4867158;29;20048;-70
2023/10/19 13:51:55;;;;;;;12.00;8.05;;;;;;;15.51;100.00;98374.78;4878887;29;20433;-69
2023/10/19 13:54:59;;;;;;;12.55;7.78;;;;;;;15.48;100.00;98378.56;4878866;29;20124;-70
2023/10/19 13:58:04;;;;;;;18.13;14.75;;;;;;;15.38;100.00;98375.28;4878523;29;20048;-68
2023/10/19 14:01:13;;;;;;;37.38;27.98;;;;;;;15.37;100.00;98380.69;4878738;29;20087;-67
2023/10/19 14:04:17;;;;;;;38.50;29.17;;;;;;;15.34;100.00;98376.56;4867650;29;20104;-67
2023/10/19 14:07:21;;;;;;;28.52;19.75;;;;;;;15.22;100.00;98367.34;4878363;29;20048;-67
2023/10/19 14:10:24;;;;;;;29.30;19.63;;;;;;;15.33;100.00;98369.66;4878377;29;20071;-69
2023/10/19 14:13:29;;;;;;;23.80;16.85;;;;;;;15.37;100.00;98365.72;4878456;29;20095;-68
2023/10/19 14:16:33;;;;;;;20.65;11.23;;;;;;;15.43;100.00;98370.31;4878402;29;20040;-70
2023/10/19 14:19:38;;;;;;;16.88;7.70;;;;;;;15.49;100.00;98361.78;4878308;29;20084;-71
2023/10/19 14:22:48;;;;;;;9.00;5.55;;;;;;;15.50;100.00;98352.88;4866810;29;20569;-69
2023/10/19 14:25:53;;;;;;;8.80;5.03;;;;;;;15.49;100.00;98348.59;4878103;29;20070;-70